Terminal Aerodrome Forecast
Issued by NWS Tampa Bay Area, FL

Home | Current Version | Previous Version | Text Only | Print | Product List | Glossary On
Versions: 1 2 3 4 5 6 7 8 9 10 11 12 13 14 15 16 17 18 19 20 21 22 23
000
FTUS42 KTBW 241757
TAFTPA
TAF
KTPA 241757Z 2418/2518 29007KT P6SM VCTS BKN040CB BKN150
     FM242200 32007KT P6SM SCT045 BKN250
     FM250100 03005KT P6SM FEW050 SCT250
     FM250400 08003KT P6SM FEW025 FEW250
     FM251400 15005KT P6SM FEW030 FEW250=

USA.gov is the U.S. government's official web portal to all federal, state and local government web resources and services.